Time;durP1;ratioP1;P1;durP2;ratioP2;P2;SDS_P1;SDS_P2;PMS_P1;PMS_P2;Temp;Humidity;BMP_temperature;BMP_pressure;BME280_temperature;BME280_humidity;BME280_pressure;Samples;Min_cycle;Max_cycle;Signal;HPM_P1;HPM_P2
2022/03/01 00:00:42;;;;;;;;;;;4.30;99.90;;;;;;5047702;28;19913;-82
2022/03/01 00:03:07;;;;;;;;;;;4.30;99.90;;;;;;5048141;28;20000;-82
2022/03/01 00:05:33;;;;;;;;;;;4.40;99.90;;;;;;5032300;28;19913;-82
2022/03/01 00:07:59;;;;;;;;;;;4.50;99.90;;;;;;5045608;28;20470;-82
2022/03/01 00:10:24;;;;;;;;;;;4.50;99.90;;;;;;5048963;28;19913;-82
2022/03/01 00:12:50;;;;;;;;;;;4.60;99.90;;;;;;5029863;28;19913;-81
2022/03/01 00:15:15;;;;;;;;;;;4.60;99.90;;;;;;5049080;28;19976;-82
2022/03/01 00:17:41;;;;;;;;;;;4.60;99.90;;;;;;5027814;28;19909;-82
2022/03/01 00:20:07;;;;;;;;;;;4.70;99.90;;;;;;5050263;28;19917;-82
2022/03/01 00:22:33;;;;;;;;;;;4.70;99.90;;;;;;5026666;28;20012;-82
2022/03/01 00:24:59;;;;;;;;;;;4.60;99.90;;;;;;5036809;28;19917;-82
2022/03/01 00:27:24;;;;;;;;;;;4.60;99.90;;;;;;5045036;28;19954;-81
2022/03/01 00:29:50;;;;;;;;;;;4.60;99.90;;;;;;5032385;28;19924;-82
2022/03/01 00:32:15;;;;;;;;;;;4.60;99.90;;;;;;5030142;28;19924;-82
2022/03/01 00:34:41;;;;;;;;;;;4.60;99.90;;;;;;5062476;28;19913;-83
2022/03/01 00:37:06;;;;;;;;;;;4.60;99.90;;;;;;5048263;28;20364;-82
2022/03/01 00:39:32;;;;;;;;;;;4.60;99.90;;;;;;5043242;28;19917;-83
2022/03/01 00:41:57;;;;;;;;;;;4.50;99.90;;;;;;5080460;28;20019;-83
2022/03/01 00:44:23;;;;;;;;;;;4.50;99.90;;;;;;5046684;28;19988;-82
2022/03/01 00:46:48;;;;;;;;;;;4.50;99.90;;;;;;5046189;28;19935;-83
2022/03/01 00:49:14;;;;;;;;;;;4.40;99.90;;;;;;5090910;28;19924;-82
2022/03/01 00:51:39;;;;;;;;;;;4.40;99.90;;;;;;5059968;28;19919;-82
2022/03/01 00:54:05;;;;;;;;;;;4.30;99.90;;;;;;5043533;28;19931;-82
2022/03/01 00:56:31;;;;;;;;;;;4.20;99.90;;;;;;5055322;28;19912;-82
2022/03/01 00:58:57;;;;;;;;;;;4.20;99.90;;;;;;5037613;28;19921;-82
2022/03/01 01:01:22;;;;;;;;;;;4.10;99.90;;;;;;5054947;28;19920;-82
2022/03/01 01:03:48;;;;;;;;;;;4.00;99.90;;;;;;5048970;28;19913;-82
2022/03/01 01:06:13;;;;;;;;;;;4.00;99.90;;;;;;5023926;28;19933;-82
2022/03/01 01:08:39;;;;;;;;;;;3.90;99.90;;;;;;5025035;28;19939;-82
2022/03/01 01:11:04;;;;;;;;;;;3.90;99.90;;;;;;5041918;28;19913;-82
2022/03/01 01:13:30;;;;;;;;;;;3.80;99.90;;;;;;5040869;28;19935;-83
2022/03/01 01:15:56;;;;;;;;;;;3.80;99.90;;;;;;5079202;28;20007;-82
2022/03/01 01:18:21;;;;;;;;;;;3.80;99.90;;;;;;5037867;28;20047;-82
2022/03/01 01:20:47;;;;;;;;;;;3.80;99.90;;;;;;5078434;28;20361;-82
2022/03/01 01:23:12;;;;;;;;;;;3.80;99.90;;;;;;5050508;28;20026;-82
2022/03/01 01:25:38;;;;;;;;;;;3.80;99.90;;;;;;5047775;28;20364;-82
2022/03/01 01:28:03;;;;;;;;;;;3.70;99.90;;;;;;5050235;28;19928;-82
2022/03/01 01:30:30;;;;;;;;;;;3.70;99.90;;;;;;5031497;28;19939;-82
2022/03/01 01:32:56;;;;;;;;;;;3.70;99.90;;;;;;5046836;28;19924;-82
2022/03/01 01:35:23;;;;;;;;;;;3.70;99.90;;;;;;5027418;28;19979;-82
2022/03/01 01:37:49;;;;;;;;;;;3.60;99.90;;;;;;5026762;28;20007;-82
2022/03/01 01:40:16;;;;;;;;;;;3.60;99.90;;;;;;5024237;28;20272;-82
2022/03/01 01:42:41;;;;;;;;;;;3.50;99.90;;;;;;5043406;28;19920;-82
2022/03/01 01:45:07;;;;;;;;;;;3.50;99.90;;;;;;5023708;28;19912;-82
2022/03/01 01:47:33;;;;;;;;;;;3.50;99.90;;;;;;5027727;28;19913;-82
2022/03/01 01:49:58;;;;;;;;;;;3.40;99.90;;;;;;5040944;28;19931;-82
2022/03/01 01:52:25;;;;;;;;;;;3.40;99.90;;;;;;5042068;28;19920;-82
2022/03/01 01:54:51;;;;;;;;;;;3.40;99.90;;;;;;5023598;28;19913;-82
2022/03/01 01:57:17;;;;;;;;;;;3.40;99.90;;;;;;5024752;28;19935;-82
2022/03/01 01:59:43;;;;;;;;;;;3.30;99.90;;;;;;5026423;28;20584;-82
2022/03/01 02:02:12;;;;;;;;;;;3.30;99.90;;;;;;5049758;28;20008;-82
2022/03/01 02:04:37;;;;;;;;;;;3.30;99.90;;;;;;5075787;28;19920;-83
2022/03/01 02:07:03;;;;;;;;;;;3.30;99.90;;;;;;5022628;28;20393;-82
2022/03/01 02:09:28;;;;;;;;;;;3.20;99.90;;;;;;5039238;28;19917;-82
2022/03/01 02:11:54;;;;;;;;;;;3.20;99.90;;;;;;5047209;28;19932;-82
2022/03/01 02:14:19;;;;;;;;;;;3.20;99.90;;;;;;5068772;28;19920;-82
2022/03/01 02:16:45;;;;;;;;;;;3.10;99.90;;;;;;5055192;28;19913;-82
2022/03/01 02:19:11;;;;;;;;;;;3.20;99.90;;;;;;5052843;28;19935;-82
2022/03/01 02:21:44;;;;;;;;;;;3.20;99.90;;;;;;5059418;28;19923;-84
2022/03/01 02:24:10;;;;;;;;;;;3.30;99.90;;;;;;5037608;28;21108;-82
2022/03/01 02:26:35;;;;;;;;;;;3.30;99.90;;;;;;5056537;28;19916;-82
2022/03/01 02:29:00;;;;;;;;;;;3.30;99.90;;;;;;5068902;28;20293;-82
2022/03/01 02:31:26;;;;;;;;;;;3.30;99.90;;;;;;5058704;28;19913;-82
2022/03/01 02:33:51;;;;;;;;;;;3.30;99.90;;;;;;5069304;28;19924;-82
2022/03/01 02:36:17;;;;;;;;;;;3.30;99.90;;;;;;5058628;28;20362;-82
2022/03/01 02:38:42;;;;;;;;;;;3.30;99.90;;;;;;5055197;28;19921;-83
2022/03/01 02:41:08;;;;;;;;;;;3.30;99.90;;;;;;5057218;28;19913;-82
2022/03/01 02:43:33;;;;;;;;;;;3.30;99.90;;;;;;5041615;28;19924;-82
2022/03/01 02:45:59;;;;;;;;;;;3.30;99.90;;;;;;5042379;28;19960;-82
2022/03/01 02:48:24;;;;;;;;;;;3.20;99.90;;;;;;5043141;28;19916;-83
2022/03/01 02:50:50;;;;;;;;;;;3.20;99.90;;;;;;5072906;28;19913;-82
2022/03/01 02:53:15;;;;;;;;;;;3.10;99.90;;;;;;5057551;28;19921;-82
2022/03/01 02:55:41;;;;;;;;;;;3.10;99.90;;;;;;5072915;28;19948;-83
2022/03/01 02:58:06;;;;;;;;;;;3.10;99.90;;;;;;5057557;28;19917;-82
2022/03/01 03:00:32;;;;;;;;;;;3.10;99.90;;;;;;5073780;28;19913;-82
2022/03/01 03:02:58;;;;;;;;;;;3.00;99.90;;;;;;5056462;28;19913;-83
2022/03/01 03:05:23;;;;;;;;;;;2.90;99.90;;;;;;5073768;28;19912;-82
2022/03/01 03:07:49;;;;;;;;;;;2.90;99.90;;;;;;5073965;28;20020;-83
2022/03/01 03:10:14;;;;;;;;;;;2.90;99.90;;;;;;5080508;28;19921;-83
2022/03/01 03:12:40;;;;;;;;;;;2.80;99.90;;;;;;5058236;28;20308;-82
2022/03/01 03:15:06;;;;;;;;;;;2.80;99.90;;;;;;5044735;28;19927;-83
2022/03/01 03:17:32;;;;;;;;;;;2.80;99.90;;;;;;5043013;28;19951;-83
2022/03/01 03:19:57;;;;;;;;;;;2.80;99.90;;;;;;5060310;28;19917;-84
2022/03/01 03:22:23;;;;;;;;;;;2.80;99.90;;;;;;5041397;28;20070;-83
2022/03/01 03:24:49;;;;;;;;;;;2.70;99.90;;;;;;5074290;28;19913;-83
2022/03/01 03:27:14;;;;;;;;;;;2.70;99.90;;;;;;5058306;28;19923;-82
2022/03/01 03:29:40;;;;;;;;;;;2.60;99.90;;;;;;5058686;28;19948;-84
2022/03/01 03:32:07;;;;;;;;;;;2.60;99.90;;;;;;5040240;28;20502;-82
2022/03/01 03:34:33;;;;;;;;;;;2.60;99.90;;;;;;5056896;28;19917;-83
2022/03/01 03:36:58;;;;;;;;;;;2.60;99.90;;;;;;5057240;28;19952;-82
2022/03/01 03:39:24;;;;;;;;;;;2.60;99.90;;;;;;5074438;28;19913;-82
2022/03/01 03:41:50;;;;;;;;;;;2.50;99.90;;;;;;5057883;28;19913;-83
2022/03/01 03:44:15;;;;;;;;;;;2.50;99.90;;;;;;5056408;28;19919;-82
2022/03/01 03:46:40;;;;;;;;;;;2.50;99.90;;;;;;5041899;28;19913;-83
2022/03/01 03:49:06;;;;;;;;;;;2.50;99.90;;;;;;5072236;28;19964;-82
2022/03/01 03:51:32;;;;;;;;;;;2.60;99.90;;;;;;5058292;28;20011;-82
2022/03/01 03:53:58;;;;;;;;;;;2.60;99.90;;;;;;5071377;28;19916;-83
2022/03/01 03:56:24;;;;;;;;;;;2.60;99.90;;;;;;5035777;28;19912;-83
2022/03/01 03:58:50;;;;;;;;;;;2.60;99.90;;;;;;5058144;28;20275;-83
2022/03/01 04:01:15;;;;;;;;;;;2.60;99.90;;;;;;5040724;28;19920;-83
2022/03/01 04:03:41;;;;;;;;;;;2.60;99.90;;;;;;5040292;28;19909;-83
2022/03/01 04:06:06;;;;;;;;;;;2.50;99.90;;;;;;5064377;28;20016;-82
2022/03/01 04:08:32;;;;;;;;;;;2.50;99.90;;;;;;5064302;28;19912;-82
2022/03/01 04:10:57;;;;;;;;;;;2.50;99.90;;;;;;5057146;28;19915;-82
2022/03/01 04:13:23;;;;;;;;;;;2.40;99.90;;;;;;5040525;28;19929;-82
2022/03/01 04:15:49;;;;;;;;;;;2.40;99.90;;;;;;5039374;28;19917;-82
2022/03/01 04:18:15;;;;;;;;;;;2.30;99.90;;;;;;5057002;28;20372;-82
2022/03/01 04:20:40;;;;;;;;;;;2.30;99.90;;;;;;5057205;28;19920;-82
2022/03/01 04:23:05;;;;;;;;;;;2.30;99.90;;;;;;5039863;28;19913;-82
2022/03/01 04:25:31;;;;;;;;;;;2.40;99.90;;;;;;5074303;28;19915;-82
2022/03/01 04:27:57;;;;;;;;;;;2.40;99.90;;;;;;5055909;28;20097;-82
2022/03/01 04:30:22;;;;;;;;;;;2.40;99.90;;;;;;5073335;28;20035;-82
2022/03/01 04:32:48;;;;;;;;;;;2.40;99.90;;;;;;5039928;28;19927;-83
2022/03/01 04:35:14;;;;;;;;;;;2.40;99.90;;;;;;5056520;28;19959;-82
2022/03/01 04:37:40;;;;;;;;;;;2.40;99.90;;;;;;5056949;28;20377;-82
2022/03/01 04:40:06;;;;;;;;;;;2.40;99.90;;;;;;5045317;28;19943;-82
2022/03/01 04:42:32;;;;;;;;;;;2.40;99.90;;;;;;5058895;28;19964;-82
2022/03/01 04:44:57;;;;;;;;;;;2.40;99.90;;;;;;5056782;28;19909;-82
2022/03/01 04:47:23;;;;;;;;;;;2.40;99.90;;;;;;5061025;28;19959;-82
2022/03/01 04:49:48;;;;;;;;;;;2.40;99.90;;;;;;5056992;28;19958;-83
2022/03/01 04:52:14;;;;;;;;;;;2.40;99.90;;;;;;5041850;28;19913;-82
2022/03/01 04:54:39;;;;;;;;;;;2.40;99.90;;;;;;5041434;28;19915;-82
2022/03/01 04:57:05;;;;;;;;;;;2.40;99.90;;;;;;5058874;28;19950;-82
2022/03/01 04:59:30;;;;;;;;;;;2.40;99.90;;;;;;5073552;28;19909;-82
2022/03/01 05:01:56;;;;;;;;;;;2.50;99.90;;;;;;5041197;28;20269;-82
2022/03/01 05:04:22;;;;;;;;;;;2.50;99.90;;;;;;5040003;28;19984;-82
2022/03/01 05:06:47;;;;;;;;;;;2.50;99.90;;;;;;5040092;28;19916;-82
2022/03/01 05:09:13;;;;;;;;;;;2.50;99.90;;;;;;5038548;28;19925;-82
2022/03/01 05:11:38;;;;;;;;;;;2.50;99.90;;;;;;5043874;28;19967;-82
2022/03/01 05:14:04;;;;;;;;;;;2.50;99.90;;;;;;5039603;28;19908;-82
2022/03/01 05:16:29;;;;;;;;;;;2.60;99.90;;;;;;5073604;28;19909;-81
2022/03/01 05:18:55;;;;;;;;;;;2.60;99.90;;;;;;5056492;28;19917;-82
2022/03/01 05:21:20;;;;;;;;;;;2.60;99.90;;;;;;5039918;28;20344;-82
2022/03/01 05:23:46;;;;;;;;;;;2.60;99.90;;;;;;5039112;28;19909;-82
2022/03/01 05:26:11;;;;;;;;;;;2.70;99.90;;;;;;5055806;28;20062;-82
2022/03/01 05:28:37;;;;;;;;;;;2.70;99.90;;;;;;5057347;28;20073;-82
2022/03/01 05:31:02;;;;;;;;;;;2.70;99.90;;;;;;5055483;28;19908;-82
2022/03/01 05:33:27;;;;;;;;;;;2.70;99.90;;;;;;5041218;28;19921;-82
2022/03/01 05:35:53;;;;;;;;;;;2.80;99.90;;;;;;5041714;28;19932;-82
2022/03/01 05:38:19;;;;;;;;;;;2.80;99.90;;;;;;5043236;28;20332;-82
2022/03/01 05:40:44;;;;;;;;;;;2.80;99.90;;;;;;5072541;28;20261;-82
2022/03/01 05:43:10;;;;;;;;;;;2.80;99.90;;;;;;5041110;28;19920;-81
2022/03/01 05:45:36;;;;;;;;;;;2.80;99.90;;;;;;5072826;28;19909;-82
2022/03/01 05:48:03;;;;;;;;;;;2.80;99.90;;;;;;5059205;28;19909;-82
2022/03/01 05:50:28;;;;;;;;;;;2.80;99.90;;;;;;5039961;28;19909;-84
2022/03/01 05:52:54;;;;;;;;;;;2.70;99.90;;;;;;5071179;28;20423;-83
2022/03/01 05:55:20;;;;;;;;;;;2.70;99.90;;;;;;5038757;28;20272;-81
2022/03/01 05:57:45;;;;;;;;;;;2.70;99.90;;;;;;5056971;28;20308;-82
2022/03/01 06:00:15;;;;;;;;;;;2.80;99.90;;;;;;5038428;28;19969;-82
2022/03/01 06:02:42;;;;;;;;;;;2.80;99.90;;;;;;5070955;28;19916;-82
2022/03/01 06:05:07;;;;;;;;;;;2.80;99.90;;;;;;5042412;28;19916;-83
2022/03/01 06:07:33;;;;;;;;;;;2.80;99.90;;;;;;5055772;28;19927;-82
2022/03/01 06:09:58;;;;;;;;;;;2.80;99.90;;;;;;5069403;28;19919;-82
2022/03/01 06:12:24;;;;;;;;;;;2.80;99.90;;;;;;5055434;28;19908;-82
2022/03/01 06:14:49;;;;;;;;;;;2.80;99.90;;;;;;5058700;28;19908;-83
2022/03/01 06:17:15;;;;;;;;;;;2.80;99.90;;;;;;5054366;28;19909;-82
2022/03/01 06:19:40;;;;;;;;;;;2.90;99.90;;;;;;5054519;28;19909;-82
2022/03/01 06:22:06;;;;;;;;;;;2.90;99.90;;;;;;5059000;28;19909;-82
2022/03/01 06:24:32;;;;;;;;;;;2.90;99.90;;;;;;5043558;28;19913;-82
2022/03/01 06:26:58;;;;;;;;;;;2.90;99.90;;;;;;5075884;28;19912;-82
2022/03/01 06:29:23;;;;;;;;;;;3.00;99.90;;;;;;5076821;28;19951;-82
2022/03/01 06:31:49;;;;;;;;;;;3.00;99.90;;;;;;5066212;28;19908;-82
2022/03/01 06:34:15;;;;;;;;;;;3.00;99.90;;;;;;5057821;28;19913;-82
2022/03/01 06:36:40;;;;;;;;;;;3.00;99.90;;;;;;5077624;28;19909;-82
2022/03/01 06:39:06;;;;;;;;;;;3.10;99.90;;;;;;5079579;28;20361;-81
2022/03/01 06:41:31;;;;;;;;;;;3.30;99.90;;;;;;5069425;28;19916;-80
2022/03/01 06:43:57;;;;;;;;;;;3.40;99.90;;;;;;5078199;28;19962;-80
2022/03/01 06:46:22;;;;;;;;;;;3.40;99.90;;;;;;5070094;28;20372;-81
2022/03/01 06:48:48;;;;;;;;;;;3.50;99.90;;;;;;5046995;28;20416;-81
2022/03/01 06:51:13;;;;;;;;;;;3.60;99.90;;;;;;5065311;28;19921;-81
2022/03/01 06:53:39;;;;;;;;;;;3.60;99.90;;;;;;5078655;28;19991;-81
2022/03/01 06:56:04;;;;;;;;;;;3.60;99.90;;;;;;5078530;28;19913;-81
2022/03/01 06:58:30;;;;;;;;;;;3.50;99.90;;;;;;5040489;28;19908;-81
2022/03/01 07:00:56;;;;;;;;;;;3.50;99.90;;;;;;5063662;28;20003;-81
2022/03/01 07:03:22;;;;;;;;;;;3.50;99.90;;;;;;5046697;28;19944;-81
2022/03/01 07:05:48;;;;;;;;;;;3.60;99.90;;;;;;5063841;28;19955;-82
2022/03/01 07:08:13;;;;;;;;;;;3.60;99.90;;;;;;5045432;28;19929;-82
2022/03/01 07:10:40;;;;;;;;;;;3.60;99.90;;;;;;5077087;28;19955;-81
2022/03/01 07:13:07;;;;;;;;;;;3.70;99.90;;;;;;5072686;28;19969;-81
2022/03/01 07:15:33;;;;;;;;;;;3.80;99.90;;;;;;5045115;28;19909;-81
2022/03/01 07:17:59;;;;;;;;;;;3.90;99.90;;;;;;5043228;28;20330;-81
2022/03/01 07:20:24;;;;;;;;;;;3.90;99.90;;;;;;5042957;28;19936;-81
2022/03/01 07:22:50;;;;;;;;;;;4.00;99.90;;;;;;5055263;28;19912;-81
2022/03/01 07:25:15;;;;;;;;;;;4.20;99.90;;;;;;5056368;28;19988;-81
2022/03/01 07:27:45;;;;;;;;;;;4.30;99.90;;;;;;5065020;28;20327;-81
2022/03/01 07:30:10;;;;;;;;;;;4.40;99.90;;;;;;5043588;28;20373;-81
2022/03/01 07:32:36;;;;;;;;;;;4.70;99.90;;;;;;5038339;28;19909;-82
2022/03/01 07:35:01;;;;;;;;;;;5.00;99.90;;;;;;5079802;28;19992;-81
2022/03/01 07:37:27;;;;;;;;;;;5.20;99.90;;;;;;5057985;28;20353;-82
2022/03/01 07:39:55;;;;;;;;;;;5.50;99.90;;;;;;5075476;28;20025;-82
2022/03/01 07:42:21;;;;;;;;;;;5.60;99.90;;;;;;5064079;28;19909;-82
2022/03/01 07:44:46;;;;;;;;;;;6.00;99.90;;;;;;5053684;28;19958;-82
2022/03/01 07:47:11;;;;;;;;;;;6.80;99.90;;;;;;5051677;28;19915;-82
2022/03/01 07:49:37;;;;;;;;;;;7.50;99.90;;;;;;5063804;28;19920;-82
2022/03/01 07:52:03;;;;;;;;;;;8.60;99.90;;;;;;5064251;28;19962;-82
2022/03/01 07:54:28;;;;;;;;;;;12.00;99.90;;;;;;5065113;28;20383;-83
2022/03/01 07:56:54;;;;;;;;;;;13.50;99.90;;;;;;5066933;28;19954;-83
2022/03/01 07:59:19;;;;;;;;;;;12.70;99.90;;;;;;5049309;28;20365;-82
2022/03/01 08:01:45;;;;;;;;;;;13.00;99.90;;;;;;5046087;28;19905;-82
2022/03/01 08:04:10;;;;;;;;;;;14.00;99.90;;;;;;5067220;28;20315;-83
2022/03/01 08:06:36;;;;;;;;;;;16.60;99.90;;;;;;5062744;28;19909;-83
2022/03/01 08:09:01;;;;;;;;;;;18.50;99.90;;;;;;5043117;28;19912;-83
2022/03/01 08:11:26;;;;;;;;;;;19.40;99.90;;;;;;5061344;28;19944;-82
2022/03/01 08:13:52;;;;;;;;;;;19.40;99.90;;;;;;5063472;28;19951;-80
2022/03/01 08:16:19;;;;;;;;;;;19.70;99.90;;;;;;5051824;28;19982;-82
2022/03/01 08:18:44;;;;;;;;;;;19.40;99.90;;;;;;5050231;28;19909;-83
2022/03/01 08:23:13;;;;;;;;;;;15.30;99.90;;;;;;5096265;27;1961152;-82
2022/03/01 08:25:38;;;;;;;;;;;13.50;99.90;;;;;;5152498;27;19920;-81
2022/03/01 08:28:04;;;;;;;;;;;12.60;99.90;;;;;;5127722;27;19970;-82
2022/03/01 08:30:30;;;;;;;;;;;11.80;99.90;;;;;;5132976;27;19907;-82
2022/03/01 08:32:55;;;;;;;;;;;13.30;99.90;;;;;;5152556;27;19908;-82
2022/03/01 08:35:21;;;;;;;;;;;14.30;99.90;;;;;;5136182;27;19951;-82
2022/03/01 08:37:47;;;;;;;;;;;14.60;99.90;;;;;;5132167;27;19926;-82
2022/03/01 08:40:13;;;;;;;;;;;14.10;99.90;;;;;;5133949;27;19959;-82
2022/03/01 08:42:39;;;;;;;;;;;13.40;99.90;;;;;;5149814;27;20429;-82
2022/03/01 08:45:05;;;;;;;;;;;13.00;99.90;;;;;;5150617;27;19908;-81
2022/03/01 08:47:30;;;;;;;;;;;12.70;99.90;;;;;;5144009;27;19907;-82
2022/03/01 08:49:56;;;;;;;;;;;12.10;99.90;;;;;;5150175;27;19914;-81
2022/03/01 08:52:21;;;;;;;;;;;11.90;99.90;;;;;;5147443;27;19911;-82
2022/03/01 08:54:47;;;;;;;;;;;12.00;99.90;;;;;;5156312;27;19908;-82
2022/03/01 08:57:12;;;;;;;;;;;12.00;99.90;;;;;;5149363;27;19926;-82
2022/03/01 08:59:38;;;;;;;;;;;11.70;99.90;;;;;;5131439;27;19907;-82
2022/03/01 09:02:04;;;;;;;;;;;12.00;99.90;;;;;;5130163;27;19922;-81
2022/03/01 09:04:29;;;;;;;;;;;11.60;99.90;;;;;;5137001;27;20073;-82
2022/03/01 09:06:55;;;;;;;;;;;11.00;99.90;;;;;;5126939;27;19907;-82
2022/03/01 09:09:20;;;;;;;;;;;10.10;99.90;;;;;;5155927;27;19920;-81
2022/03/01 09:11:45;;;;;;;;;;;9.60;99.90;;;;;;5136199;28;19915;-81
2022/03/01 09:14:11;;;;;;;;;;;9.20;99.90;;;;;;5134863;27;20389;-81
2022/03/01 09:16:38;;;;;;;;;;;9.10;99.90;;;;;;5142608;27;19923;-81
2022/03/01 09:19:04;;;;;;;;;;;8.80;99.90;;;;;;5126929;27;19911;-81
2022/03/01 09:21:29;;;;;;;;;;;8.50;99.90;;;;;;5153471;27;19927;-82
2022/03/01 09:23:55;;;;;;;;;;;8.80;99.90;;;;;;5138584;27;20018;-81
2022/03/01 09:26:20;;;;;;;;;;;10.20;99.90;;;;;;5145795;27;19908;-82
2022/03/01 09:28:46;;;;;;;;;;;12.80;99.90;;;;;;5132698;27;19907;-82
2022/03/01 09:31:11;;;;;;;;;;;15.40;99.90;;;;;;5135603;27;19931;-82
2022/03/01 09:33:42;;;;;;;;;;;17.70;99.90;;;;;;5140878;27;19908;-83
2022/03/01 09:36:09;;;;;;;;;;;18.90;99.90;;;;;;5126523;27;19914;-83
2022/03/01 09:38:34;;;;;;;;;;;20.00;99.90;;;;;;5131744;27;19916;-82
2022/03/01 09:41:00;;;;;;;;;;;21.20;99.90;;;;;;5135356;27;19922;-82
2022/03/01 09:43:26;;;;;;;;;;;21.90;99.90;;;;;;5134996;27;19955;-82
2022/03/01 09:45:51;;;;;;;;;;;21.80;99.90;;;;;;5131616;27;19931;-82
2022/03/01 09:48:17;;;;;;;;;;;19.80;99.90;;;;;;5112251;27;19914;-83
2022/03/01 09:50:43;;;;;;;;;;;17.90;99.90;;;;;;5114186;27;19916;-82
2022/03/01 09:53:09;;;;;;;;;;;16.10;99.90;;;;;;5102205;27;19908;-81
2022/03/01 09:55:34;;;;;;;;;;;14.80;99.90;;;;;;5132305;27;19996;-80
2022/03/01 09:58:00;;;;;;;;;;;14.20;99.90;;;;;;5114288;27;20073;-80
2022/03/01 10:00:26;;;;;;;;;;;13.90;99.90;;;;;;5108645;27;19983;-81
2022/03/01 10:02:55;;;;;;;;;;;13.50;99.90;;;;;;5134243;27;19966;-81
2022/03/01 10:05:30;;;;;;;;;;;12.50;99.90;;;;;;5117395;27;19995;-81
2022/03/01 10:08:04;;;;;;;;;;;12.40;99.90;;;;;;5136108;27;20000;-81
2022/03/01 10:10:35;;;;;;;;;;;12.20;99.90;;;;;;5119484;27;19983;-81
2022/03/01 10:13:01;;;;;;;;;;;12.20;99.90;;;;;;5138935;27;19934;-81
2022/03/01 10:15:27;;;;;;;;;;;12.30;99.90;;;;;;5117483;27;20291;-81
2022/03/01 10:17:53;;;;;;;;;;;12.00;99.90;;;;;;5104723;28;19908;-81
2022/03/01 10:20:19;;;;;;;;;;;11.90;99.90;;;;;;5137345;27;19914;-80
2022/03/01 10:22:45;;;;;;;;;;;11.90;99.90;;;;;;5118871;27;19920;-81
2022/03/01 10:25:12;;;;;;;;;;;11.60;99.90;;;;;;5145178;27;19956;-81
2022/03/01 10:27:37;;;;;;;;;;;11.70;99.90;;;;;;5129443;27;19982;-80
2022/03/01 10:30:04;;;;;;;;;;;11.80;99.90;;;;;;5125247;27;20364;-80
2022/03/01 10:32:29;;;;;;;;;;;11.90;99.90;;;;;;5142048;27;20319;-81
2022/03/01 10:34:56;;;;;;;;;;;12.20;99.90;;;;;;5127714;27;19943;-81
2022/03/01 10:37:26;;;;;;;;;;;12.30;99.90;;;;;;5120889;27;19952;-80
2022/03/01 10:39:51;;;;;;;;;;;12.50;99.90;;;;;;5106350;28;19903;-81
2022/03/01 10:42:25;;;;;;;;;;;12.40;99.90;;;;;;5121860;27;20424;-81
2022/03/01 10:44:56;;;;;;;;;;;12.70;99.90;;;;;;5105435;27;19911;-80
2022/03/01 10:47:21;;;;;;;;;;;12.80;99.90;;;;;;5114497;27;19911;-80
2022/03/01 10:49:47;;;;;;;;;;;12.40;99.90;;;;;;5131481;27;20267;-81
2022/03/01 10:52:14;;;;;;;;;;;12.30;99.90;;;;;;5109385;28;19911;-80
2022/03/01 10:54:43;;;;;;;;;;;12.00;99.90;;;;;;5103411;28;19949;-80
2022/03/01 10:57:10;;;;;;;;;;;11.70;99.90;;;;;;5120064;27;19904;-81
2022/03/01 10:59:37;;;;;;;;;;;11.50;99.90;;;;;;5141512;27;19933;-81
2022/03/01 11:02:03;;;;;;;;;;;12.00;99.90;;;;;;5143258;27;19979;-81
2022/03/01 11:04:29;;;;;;;;;;;13.60;99.90;;;;;;5141697;27;19943;-81
2022/03/01 11:06:56;;;;;;;;;;;13.90;99.90;;;;;;5133813;27;19918;-81
2022/03/01 11:09:23;;;;;;;;;;;13.70;99.90;;;;;;5136017;27;20379;-81
2022/03/01 11:11:50;;;;;;;;;;;13.40;99.90;;;;;;5135834;27;19918;-82
2022/03/01 11:14:18;;;;;;;;;;;13.30;99.90;;;;;;5114853;27;20033;-81
2022/03/01 11:17:02;;;;;;;;;;;13.30;99.90;;;;;;5116696;28;19911;-81
2022/03/01 11:19:30;;;;;;;;;;;13.20;99.90;;;;;;5128987;27;19908;-80
2022/03/01 11:21:57;;;;;;;;;;;13.30;99.90;;;;;;5130034;27;19965;-81
2022/03/01 11:24:23;;;;;;;;;;;13.20;99.90;;;;;;5128939;27;19918;-81
2022/03/01 11:26:49;;;;;;;;;;;13.10;99.90;;;;;;5137015;27;19907;-81
2022/03/01 11:29:17;;;;;;;;;;;13.20;99.90;;;;;;5131391;27;19908;-81
2022/03/01 11:31:43;;;;;;;;;;;13.30;99.90;;;;;;5117370;27;20477;-81
2022/03/01 11:34:20;;;;;;;;;;;13.20;99.90;;;;;;5134937;27;19907;-81
2022/03/01 11:36:49;;;;;;;;;;;13.00;99.90;;;;;;5134015;27;19908;-81
2022/03/01 11:39:15;;;;;;;;;;;13.10;99.90;;;;;;5132616;27;19907;-81
2022/03/01 11:41:48;;;;;;;;;;;13.20;99.90;;;;;;5129483;27;19912;-81
2022/03/01 11:44:21;;;;;;;;;;;13.40;99.90;;;;;;5128194;27;19915;-81
2022/03/01 11:46:48;;;;;;;;;;;13.80;99.90;;;;;;5132637;27;19908;-82
2022/03/01 11:49:15;;;;;;;;;;;14.30;99.90;;;;;;5130835;27;19912;-81
2022/03/01 11:51:49;;;;;;;;;;;14.60;99.90;;;;;;5114393;28;19985;-82
2022/03/01 11:54:19;;;;;;;;;;;14.80;99.90;;;;;;5130964;27;19999;-81
2022/03/01 11:56:47;;;;;;;;;;;15.40;99.90;;;;;;5132109;27;19953;-82
2022/03/01 11:59:12;;;;;;;;;;;16.00;99.90;;;;;;5135969;27;20301;-82
2022/03/01 12:01:38;;;;;;;;;;;17.20;99.90;;;;;;5132027;27;19926;-82
2022/03/01 12:04:05;;;;;;;;;;;17.70;99.90;;;;;;5128446;27;20385;-81
2022/03/01 12:06:32;;;;;;;;;;;17.50;99.90;;;;;;5108497;28;19920;-82
2022/03/01 12:08:58;;;;;;;;;;;17.20;99.90;;;;;;5112793;27;20248;-81
2022/03/01 12:11:37;;;;;;;;;;;16.70;99.90;;;;;;5121496;27;19944;-80
2022/03/01 12:14:04;;;;;;;;;;;15.70;99.90;;;;;;5129570;27;19930;-81
2022/03/01 12:16:33;;;;;;;;;;;16.00;99.90;;;;;;5109953;28;19939;-81
2022/03/01 12:19:06;;;;;;;;;;;16.40;99.90;;;;;;5112671;28;19947;-81
2022/03/01 12:21:31;;;;;;;;;;;16.90;99.90;;;;;;5125363;28;19912;-80
2022/03/01 12:23:57;;;;;;;;;;;17.60;99.90;;;;;;5128051;28;19956;-81
2022/03/01 12:26:25;;;;;;;;;;;17.90;99.90;;;;;;5116712;28;19915;-81
2022/03/01 12:28:51;;;;;;;;;;;19.20;99.90;;;;;;5128420;28;19915;-81
2022/03/01 12:31:22;;;;;;;;;;;19.20;99.90;;;;;;5127519;28;19912;-81
2022/03/01 12:33:53;;;;;;;;;;;19.70;99.90;;;;;;5107296;28;19907;-82
2022/03/01 12:36:37;;;;;;;;;;;20.20;99.90;;;;;;5133141;28;19911;-81
2022/03/01 12:39:13;;;;;;;;;;;20.40;99.90;;;;;;5113529;28;19916;-81
2022/03/01 12:41:40;;;;;;;;;;;19.60;99.90;;;;;;5135963;28;19981;-81
2022/03/01 12:44:11;;;;;;;;;;;18.60;99.90;;;;;;5117961;28;19933;-82
2022/03/01 12:46:37;;;;;;;;;;;18.40;99.90;;;;;;5131976;28;19979;-81
2022/03/01 12:49:04;;;;;;;;;;;18.20;99.90;;;;;;5115121;28;19912;-82
2022/03/01 12:51:29;;;;;;;;;;;18.20;99.90;;;;;;5133412;28;20376;-83
2022/03/01 12:54:06;;;;;;;;;;;17.30;99.90;;;;;;5130354;28;19915;-83
2022/03/01 12:56:33;;;;;;;;;;;16.90;99.90;;;;;;5129387;28;19915;-82
2022/03/01 12:59:03;;;;;;;;;;;16.50;99.90;;;;;;5115443;28;19921;-82
2022/03/01 13:01:29;;;;;;;;;;;16.50;99.90;;;;;;5115253;28;19911;-81
2022/03/01 13:03:54;;;;;;;;;;;16.10;99.90;;;;;;5111775;28;19929;-81
2022/03/01 13:06:20;;;;;;;;;;;15.60;99.90;;;;;;5111660;28;19908;-81
2022/03/01 13:08:49;;;;;;;;;;;14.90;99.90;;;;;;5118045;27;19908;-80
2022/03/01 13:11:15;;;;;;;;;;;14.30;99.90;;;;;;5137752;27;19911;-81
2022/03/01 13:13:50;;;;;;;;;;;14.20;99.90;;;;;;5119918;27;19911;-82
2022/03/01 13:16:17;;;;;;;;;;;14.10;99.90;;;;;;5121059;27;19998;-82
2022/03/01 13:18:42;;;;;;;;;;;13.90;99.90;;;;;;5121710;28;19929;-83
2022/03/01 13:21:08;;;;;;;;;;;13.90;99.90;;;;;;5135746;27;19908;-82
2022/03/01 13:23:33;;;;;;;;;;;13.80;99.90;;;;;;5131983;27;19921;-83
2022/03/01 13:26:01;;;;;;;;;;;13.70;99.90;;;;;;5137781;27;19908;-83
2022/03/01 13:28:44;;;;;;;;;;;13.70;99.90;;;;;;5116807;27;20414;-82
2022/03/01 13:31:18;;;;;;;;;;;14.00;99.90;;;;;;5135628;27;19908;-82
2022/03/01 13:33:44;;;;;;;;;;;14.10;99.90;;;;;;5132380;27;19923;-82
2022/03/01 13:36:11;;;;;;;;;;;14.00;99.90;;;;;;5135032;27;19915;-82
2022/03/01 13:38:37;;;;;;;;;;;13.70;99.90;;;;;;5131469;27;19991;-81
2022/03/01 13:41:02;;;;;;;;;;;13.70;99.90;;;;;;5115901;27;19912;-81
2022/03/01 13:43:28;;;;;;;;;;;13.50;99.90;;;;;;5112877;28;19904;-81
2022/03/01 13:45:55;;;;;;;;;;;13.40;99.90;;;;;;5134494;27;19919;-81
2022/03/01 13:48:20;;;;;;;;;;;13.40;99.90;;;;;;5121655;27;19904;-82
2022/03/01 13:50:49;;;;;;;;;;;13.40;99.90;;;;;;5133405;27;19973;-82
2022/03/01 13:53:19;;;;;;;;;;;13.40;99.90;;;;;;5131190;27;19914;-81
2022/03/01 13:55:46;;;;;;;;;;;13.50;99.90;;;;;;5133137;27;19929;-81
2022/03/01 13:58:16;;;;;;;;;;;13.70;99.90;;;;;;5114665;27;20393;-81
2022/03/01 14:00:45;;;;;;;;;;;13.70;99.90;;;;;;5129032;27;19984;-81
2022/03/01 14:03:15;;;;;;;;;;;13.50;99.90;;;;;;5132455;27;19970;-81
2022/03/01 14:05:45;;;;;;;;;;;13.50;99.90;;;;;;5115220;27;19916;-81
2022/03/01 14:08:15;;;;;;;;;;;13.20;99.90;;;;;;5118371;27;19915;-81
2022/03/01 14:10:44;;;;;;;;;;;13.20;99.90;;;;;;5116315;27;20012;-82
2022/03/01 14:13:21;;;;;;;;;;;13.00;99.90;;;;;;5137710;27;19908;-82
2022/03/01 14:15:50;;;;;;;;;;;12.70;99.90;;;;;;5142964;27;19919;-82
2022/03/01 14:18:16;;;;;;;;;;;12.40;99.90;;;;;;5124864;28;19908;-81
2022/03/01 14:20:42;;;;;;;;;;;12.20;99.90;;;;;;5124232;27;20472;-82